sensor_id;sensor_type;location;lat;lon;timestamp;temperature;humidity
74946;HTU21D;63509;45.250;38.102;2024-03-08T00:00:57;4.31;71.28
74946;HTU21D;63509;45.250;38.102;2024-03-08T00:03:23;4.29;71.27
74946;HTU21D;63509;45.250;38.102;2024-03-08T00:05:49;4.30;71.24
74946;HTU21D;63509;45.250;38.102;2024-03-08T00:08:16;4.26;71.26
74946;HTU21D;63509;45.250;38.102;2024-03-08T00:10:42;4.26;71.25
74946;HTU21D;63509;45.250;38.102;2024-03-08T00:13:08;4.23;71.23
74946;HTU21D;63509;45.250;38.102;2024-03-08T00:15:35;4.23;71.24
74946;HTU21D;63509;45.250;38.102;2024-03-08T00:18:01;4.24;71.22
74946;HTU21D;63509;45.250;38.102;2024-03-08T00:20:28;4.22;71.18
74946;HTU21D;63509;45.250;38.102;2024-03-08T00:22:54;4.21;71.16
74946;HTU21D;63509;45.250;38.102;2024-03-08T00:25:23;4.18;71.13
74946;HTU21D;63509;45.250;38.102;2024-03-08T00:27:49;4.17;71.13
74946;HTU21D;63509;45.250;38.102;2024-03-08T00:30:16;4.16;71.11
74946;HTU21D;63509;45.250;38.102;2024-03-08T00:32:43;4.15;71.08
74946;HTU21D;63509;45.250;38.102;2024-03-08T00:35:09;4.10;71.05
74946;HTU21D;63509;45.250;38.102;2024-03-08T00:37:36;4.06;71.03
74946;HTU21D;63509;45.250;38.102;2024-03-08T00:40:02;4.05;71.05
74946;HTU21D;63509;45.250;38.102;2024-03-08T00:42:29;4.00;71.02
74946;HTU21D;63509;45.250;38.102;2024-03-08T00:44:55;3.98;71.00
74946;HTU21D;63509;45.250;38.102;2024-03-08T00:47:21;3.94;70.98
74946;HTU21D;63509;45.250;38.102;2024-03-08T00:49:48;3.92;70.96
74946;HTU21D;63509;45.250;38.102;2024-03-08T00:52:14;3.88;70.97
74946;HTU21D;63509;45.250;38.102;2024-03-08T00:54:41;3.86;70.93
74946;HTU21D;63509;45.250;38.102;2024-03-08T00:57:09;3.79;70.93
74946;HTU21D;63509;45.250;38.102;2024-03-08T00:59:35;3.75;70.97
74946;HTU21D;63509;45.250;38.102;2024-03-08T01:02:04;3.72;70.97
74946;HTU21D;63509;45.250;38.102;2024-03-08T01:04:32;3.71;70.97
74946;HTU21D;63509;45.250;38.102;2024-03-08T01:06:59;3.68;70.97
74946;HTU21D;63509;45.250;38.102;2024-03-08T01:09:26;3.68;70.93
74946;HTU21D;63509;45.250;38.102;2024-03-08T01:11:56;3.65;70.92
74946;HTU21D;63509;45.250;38.102;2024-03-08T01:14:22;3.64;70.92
74946;HTU21D;63509;45.250;38.102;2024-03-08T01:16:49;3.63;70.90
74946;HTU21D;63509;45.250;38.102;2024-03-08T01:19:15;3.61;70.89
74946;HTU21D;63509;45.250;38.102;2024-03-08T01:21:42;3.61;70.88
74946;HTU21D;63509;45.250;38.102;2024-03-08T01:24:08;3.60;70.84
74946;HTU21D;63509;45.250;38.102;2024-03-08T01:26:34;3.55;70.82
74946;HTU21D;63509;45.250;38.102;2024-03-08T01:29:01;3.49;70.85
74946;HTU21D;63509;45.250;38.102;2024-03-08T01:31:31;3.45;70.84
74946;HTU21D;63509;45.250;38.102;2024-03-08T01:33:58;3.44;70.83
74946;HTU21D;63509;45.250;38.102;2024-03-08T01:36:24;3.40;70.83
74946;HTU21D;63509;45.250;38.102;2024-03-08T01:38:51;3.38;70.82
74946;HTU21D;63509;45.250;38.102;2024-03-08T01:41:17;3.35;70.83
74946;HTU21D;63509;45.250;38.102;2024-03-08T01:43:44;3.34;70.81
74946;HTU21D;63509;45.250;38.102;2024-03-08T01:46:13;3.31;70.77
74946;HTU21D;63509;45.250;38.102;2024-03-08T01:48:42;3.28;70.77
74946;HTU21D;63509;45.250;38.102;2024-03-08T01:51:09;3.25;70.78
74946;HTU21D;63509;45.250;38.102;2024-03-08T01:53:37;3.19;70.77
74946;HTU21D;63509;45.250;38.102;2024-03-08T01:56:06;3.14;70.78
74946;HTU21D;63509;45.250;38.102;2024-03-08T01:58:32;3.08;70.77
74946;HTU21D;63509;45.250;38.102;2024-03-08T02:00:59;3.04;70.84
74946;HTU21D;63509;45.250;38.102;2024-03-08T02:03:25;3.03;70.82
74946;HTU21D;63509;45.250;38.102;2024-03-08T02:05:52;3.02;70.82
74946;HTU21D;63509;45.250;38.102;2024-03-08T02:08:19;3.04;70.84
74946;HTU21D;63509;45.250;38.102;2024-03-08T02:10:48;3.04;70.79
74946;HTU21D;63509;45.250;38.102;2024-03-08T02:13:15;3.05;70.74
74946;HTU21D;63509;45.250;38.102;2024-03-08T02:15:52;3.02;70.71
74946;HTU21D;63509;45.250;38.102;2024-03-08T02:18:18;3.02;70.69
74946;HTU21D;63509;45.250;38.102;2024-03-08T02:20:48;2.99;70.69
74946;HTU21D;63509;45.250;38.102;2024-03-08T02:23:15;2.99;70.71
74946;HTU21D;63509;45.250;38.102;2024-03-08T02:25:41;2.98;70.74
74946;HTU21D;63509;45.250;38.102;2024-03-08T02:28:13;3.00;70.74
74946;HTU21D;63509;45.250;38.102;2024-03-08T02:30:40;2.99;70.71
74946;HTU21D;63509;45.250;38.102;2024-03-08T02:33:07;3.00;70.65
74946;HTU21D;63509;45.250;38.102;2024-03-08T02:35:35;2.98;70.70
74946;HTU21D;63509;45.250;38.102;2024-03-08T02:38:03;2.97;70.69
74946;HTU21D;63509;45.250;38.102;2024-03-08T02:40:29;2.98;70.71
74946;HTU21D;63509;45.250;38.102;2024-03-08T02:42:56;2.97;70.71
74946;HTU21D;63509;45.250;38.102;2024-03-08T02:45:22;2.97;70.65
74946;HTU21D;63509;45.250;38.102;2024-03-08T02:47:48;2.96;70.62
74946;HTU21D;63509;45.250;38.102;2024-03-08T02:50:17;2.95;70.62
74946;HTU21D;63509;45.250;38.102;2024-03-08T02:52:44;2.94;70.63
74946;HTU21D;63509;45.250;38.102;2024-03-08T02:55:12;2.94;70.61
74946;HTU21D;63509;45.250;38.102;2024-03-08T02:57:42;2.93;70.59
74946;HTU21D;63509;45.250;38.102;2024-03-08T03:00:36;2.89;70.61
74946;HTU21D;63509;45.250;38.102;2024-03-08T03:03:17;2.88;70.64
74946;HTU21D;63509;45.250;38.102;2024-03-08T03:06:05;2.88;70.62
74946;HTU21D;63509;45.250;38.102;2024-03-08T03:08:33;2.87;70.61
74946;HTU21D;63509;45.250;38.102;2024-03-08T03:10:59;2.85;70.65
74946;HTU21D;63509;45.250;38.102;2024-03-08T03:13:25;2.89;70.64
74946;HTU21D;63509;45.250;38.102;2024-03-08T03:15:51;2.87;70.63
74946;HTU21D;63509;45.250;38.102;2024-03-08T03:18:18;2.88;70.64
74946;HTU21D;63509;45.250;38.102;2024-03-08T03:20:47;2.88;70.61
74946;HTU21D;63509;45.250;38.102;2024-03-08T03:23:16;2.90;70.62
74946;HTU21D;63509;45.250;38.102;2024-03-08T03:25:46;2.90;70.60
74946;HTU21D;63509;45.250;38.102;2024-03-08T03:28:15;2.90;70.61
74946;HTU21D;63509;45.250;38.102;2024-03-08T03:30:46;2.89;70.62
74946;HTU21D;63509;45.250;38.102;2024-03-08T03:33:12;2.89;70.59
74946;HTU21D;63509;45.250;38.102;2024-03-08T03:35:40;2.87;70.50
74946;HTU21D;63509;45.250;38.102;2024-03-08T03:38:08;2.85;70.54
74946;HTU21D;63509;45.250;38.102;2024-03-08T03:40:39;2.82;70.53
74946;HTU21D;63509;45.250;38.102;2024-03-08T03:43:07;2.76;70.55
74946;HTU21D;63509;45.250;38.102;2024-03-08T03:45:33;2.75;70.59
74946;HTU21D;63509;45.250;38.102;2024-03-08T03:48:07;2.73;70.64
74946;HTU21D;63509;45.250;38.102;2024-03-08T03:50:36;2.71;70.68
74946;HTU21D;63509;45.250;38.102;2024-03-08T03:53:04;2.71;70.72
74946;HTU21D;63509;45.250;38.102;2024-03-08T03:55:34;2.69;70.65
74946;HTU21D;63509;45.250;38.102;2024-03-08T03:58:00;2.65;70.64
74946;HTU21D;63509;45.250;38.102;2024-03-08T04:00:27;2.57;70.69
74946;HTU21D;63509;45.250;38.102;2024-03-08T04:02:54;2.47;70.74
74946;HTU21D;63509;45.250;38.102;2024-03-08T04:05:20;2.41;70.79
74946;HTU21D;63509;45.250;38.102;2024-03-08T04:07:46;2.39;70.81
74946;HTU21D;63509;45.250;38.102;2024-03-08T04:10:12;2.39;70.86
74946;HTU21D;63509;45.250;38.102;2024-03-08T04:12:39;2.41;70.85
74946;HTU21D;63509;45.250;38.102;2024-03-08T04:15:05;2.42;70.84
74946;HTU21D;63509;45.250;38.102;2024-03-08T04:17:36;2.40;70.84
74946;HTU21D;63509;45.250;38.102;2024-03-08T04:20:06;2.39;70.84
74946;HTU21D;63509;45.250;38.102;2024-03-08T04:22:40;2.37;70.84
74946;HTU21D;63509;45.250;38.102;2024-03-08T04:25:07;2.38;70.88
74946;HTU21D;63509;45.250;38.102;2024-03-08T04:27:33;2.40;70.87
74946;HTU21D;63509;45.250;38.102;2024-03-08T04:30:00;2.40;70.89
74946;HTU21D;63509;45.250;38.102;2024-03-08T04:32:27;2.43;70.90
74946;HTU21D;63509;45.250;38.102;2024-03-08T04:34:55;2.44;70.87
74946;HTU21D;63509;45.250;38.102;2024-03-08T04:37:22;2.46;70.87
74946;HTU21D;63509;45.250;38.102;2024-03-08T04:39:49;2.49;70.87
74946;HTU21D;63509;45.250;38.102;2024-03-08T04:42:16;2.50;70.86
74946;HTU21D;63509;45.250;38.102;2024-03-08T04:44:44;2.52;70.83
74946;HTU21D;63509;45.250;38.102;2024-03-08T04:47:10;2.54;70.84
74946;HTU21D;63509;45.250;38.102;2024-03-08T04:49:37;2.55;70.82
74946;HTU21D;63509;45.250;38.102;2024-03-08T04:52:03;2.58;70.84
74946;HTU21D;63509;45.250;38.102;2024-03-08T04:54:30;2.58;70.81
74946;HTU21D;63509;45.250;38.102;2024-03-08T04:56:57;2.58;70.77
74946;HTU21D;63509;45.250;38.102;2024-03-08T04:59:23;2.56;70.75
74946;HTU21D;63509;45.250;38.102;2024-03-08T05:01:49;2.58;70.78
74946;HTU21D;63509;45.250;38.102;2024-03-08T05:04:16;2.58;70.75
74946;HTU21D;63509;45.250;38.102;2024-03-08T05:06:43;2.57;70.79
74946;HTU21D;63509;45.250;38.102;2024-03-08T05:09:09;2.57;70.77
74946;HTU21D;63509;45.250;38.102;2024-03-08T05:11:45;2.55;70.74
74946;HTU21D;63509;45.250;38.102;2024-03-08T05:14:12;2.50;70.72
74946;HTU21D;63509;45.250;38.102;2024-03-08T05:16:46;2.40;70.76
74946;HTU21D;63509;45.250;38.102;2024-03-08T05:19:19;2.32;70.86
74946;HTU21D;63509;45.250;38.102;2024-03-08T05:21:46;2.31;70.93
74946;HTU21D;63509;45.250;38.102;2024-03-08T05:24:13;2.32;70.95
74946;HTU21D;63509;45.250;38.102;2024-03-08T05:26:43;2.35;70.86
74946;HTU21D;63509;45.250;38.102;2024-03-08T05:29:10;2.27;70.85
74946;HTU21D;63509;45.250;38.102;2024-03-08T05:31:56;2.25;70.97
74946;HTU21D;63509;45.250;38.102;2024-03-08T05:34:23;2.29;70.94
74946;HTU21D;63509;45.250;38.102;2024-03-08T05:36:53;2.29;70.92
74946;HTU21D;63509;45.250;38.102;2024-03-08T05:39:21;2.31;70.90
74946;HTU21D;63509;45.250;38.102;2024-03-08T05:41:47;2.34;70.90
74946;HTU21D;63509;45.250;38.102;2024-03-08T05:44:14;2.34;70.93
74946;HTU21D;63509;45.250;38.102;2024-03-08T05:46:43;2.35;70.96
74946;HTU21D;63509;45.250;38.102;2024-03-08T05:49:09;2.32;70.94
74946;HTU21D;63509;45.250;38.102;2024-03-08T05:51:41;2.32;70.90
74946;HTU21D;63509;45.250;38.102;2024-03-08T05:54:11;2.24;70.93
74946;HTU21D;63509;45.250;38.102;2024-03-08T05:56:39;2.22;71.03
74946;HTU21D;63509;45.250;38.102;2024-03-08T05:59:12;2.23;71.00
74946;HTU21D;63509;45.250;38.102;2024-03-08T06:01:59;2.21;71.03
74946;HTU21D;63509;45.250;38.102;2024-03-08T06:04:43;2.22;71.03
74946;HTU21D;63509;45.250;38.102;2024-03-08T06:07:11;2.25;71.05
74946;HTU21D;63509;45.250;38.102;2024-03-08T06:09:38;2.28;71.05
74946;HTU21D;63509;45.250;38.102;2024-03-08T06:12:05;2.30;71.03
74946;HTU21D;63509;45.250;38.102;2024-03-08T06:14:32;2.29;71.03
74946;HTU21D;63509;45.250;38.102;2024-03-08T06:16:59;2.29;71.04
74946;HTU21D;63509;45.250;38.102;2024-03-08T06:19:26;2.32;71.07
74946;HTU21D;63509;45.250;38.102;2024-03-08T06:21:52;2.36;71.07
74946;HTU21D;63509;45.250;38.102;2024-03-08T06:24:19;2.32;71.01
74946;HTU21D;63509;45.250;38.102;2024-03-08T06:26:45;2.21;71.10
74946;HTU21D;63509;45.250;38.102;2024-03-08T06:29:11;2.11;71.13
74946;HTU21D;63509;45.250;38.102;2024-03-08T06:31:38;2.05;71.24
74946;HTU21D;63509;45.250;38.102;2024-03-08T06:34:05;2.08;71.32
74946;HTU21D;63509;45.250;38.102;2024-03-08T06:36:33;2.13;71.33
74946;HTU21D;63509;45.250;38.102;2024-03-08T06:39:00;2.12;71.28
74946;HTU21D;63509;45.250;38.102;2024-03-08T06:41:27;2.07;71.33
74946;HTU21D;63509;45.250;38.102;2024-03-08T06:43:53;2.03;71.33
74946;HTU21D;63509;45.250;38.102;2024-03-08T06:46:23;1.97;71.41
74946;HTU21D;63509;45.250;38.102;2024-03-08T06:48:50;1.92;71.48
74946;HTU21D;63509;45.250;38.102;2024-03-08T06:51:16;1.85;71.56
74946;HTU21D;63509;45.250;38.102;2024-03-08T06:53:43;1.84;71.64
74946;HTU21D;63509;45.250;38.102;2024-03-08T06:56:09;1.83;71.67
74946;HTU21D;63509;45.250;38.102;2024-03-08T06:58:35;1.83;71.69
74946;HTU21D;63509;45.250;38.102;2024-03-08T07:01:02;1.88;71.71
74946;HTU21D;63509;45.250;38.102;2024-03-08T07:03:30;1.97;71.70
74946;HTU21D;63509;45.250;38.102;2024-03-08T07:05:57;2.09;71.67
74946;HTU21D;63509;45.250;38.102;2024-03-08T07:08:24;2.15;71.61
74946;HTU21D;63509;45.250;38.102;2024-03-08T07:10:54;2.15;71.57
74946;HTU21D;63509;45.250;38.102;2024-03-08T07:13:20;2.17;71.58
74946;HTU21D;63509;45.250;38.102;2024-03-08T07:15:47;2.19;71.62
74946;HTU21D;63509;45.250;38.102;2024-03-08T07:18:13;2.17;71.64
74946;HTU21D;63509;45.250;38.102;2024-03-08T07:20:41;2.22;71.66
74946;HTU21D;63509;45.250;38.102;2024-03-08T07:23:09;2.24;71.64
74946;HTU21D;63509;45.250;38.102;2024-03-08T07:25:36;2.23;71.63
74946;HTU21D;63509;45.250;38.102;2024-03-08T07:28:04;2.21;71.69
74946;HTU21D;63509;45.250;38.102;2024-03-08T07:30:32;2.16;71.77
74946;HTU21D;63509;45.250;38.102;2024-03-08T07:33:22;2.17;71.76
74946;HTU21D;63509;45.250;38.102;2024-03-08T07:35:49;2.19;71.82
74946;HTU21D;63509;45.250;38.102;2024-03-08T07:38:16;2.19;71.85
74946;HTU21D;63509;45.250;38.102;2024-03-08T07:40:42;2.20;71.86
74946;HTU21D;63509;45.250;38.102;2024-03-08T07:43:12;2.22;71.90
74946;HTU21D;63509;45.250;38.102;2024-03-08T07:45:39;2.20;71.96
74946;HTU21D;63509;45.250;38.102;2024-03-08T07:48:06;2.19;71.97
74946;HTU21D;63509;45.250;38.102;2024-03-08T07:50:40;2.20;71.98
74946;HTU21D;63509;45.250;38.102;2024-03-08T07:53:07;2.20;71.93
74946;HTU21D;63509;45.250;38.102;2024-03-08T07:55:34;2.16;72.02
74946;HTU21D;63509;45.250;38.102;2024-03-08T07:58:01;2.15;72.09
74946;HTU21D;63509;45.250;38.102;2024-03-08T08:00:32;2.13;72.13
74946;HTU21D;63509;45.250;38.102;2024-03-08T08:02:58;2.12;72.23
74946;HTU21D;63509;45.250;38.102;2024-03-08T08:05:24;2.07;72.27
74946;HTU21D;63509;45.250;38.102;2024-03-08T08:07:52;2.03;72.34
74946;HTU21D;63509;45.250;38.102;2024-03-08T08:10:19;2.05;72.41
74946;HTU21D;63509;45.250;38.102;2024-03-08T08:12:48;2.07;72.58
74946;HTU21D;63509;45.250;38.102;2024-03-08T08:15:15;2.07;72.64
74946;HTU21D;63509;45.250;38.102;2024-03-08T08:17:44;2.09;72.65
74946;HTU21D;63509;45.250;38.102;2024-03-08T08:20:12;2.10;72.64
74946;HTU21D;63509;45.250;38.102;2024-03-08T08:22:41;2.19;72.63
74946;HTU21D;63509;45.250;38.102;2024-03-08T08:25:09;2.29;72.61
74946;HTU21D;63509;45.250;38.102;2024-03-08T08:27:40;2.37;72.63
74946;HTU21D;63509;45.250;38.102;2024-03-08T08:30:08;2.40;72.51
74946;HTU21D;63509;45.250;38.102;2024-03-08T08:32:35;2.42;72.50
74946;HTU21D;63509;45.250;38.102;2024-03-08T08:35:05;2.53;72.52
74946;HTU21D;63509;45.250;38.102;2024-03-08T08:37:32;2.64;72.51
74946;HTU21D;63509;45.250;38.102;2024-03-08T08:40:03;2.75;72.42
74946;HTU21D;63509;45.250;38.102;2024-03-08T08:42:36;2.79;72.34
74946;HTU21D;63509;45.250;38.102;2024-03-08T08:45:06;2.84;72.35
74946;HTU21D;63509;45.250;38.102;2024-03-08T08:47:39;2.86;72.32
74946;HTU21D;63509;45.250;38.102;2024-03-08T08:50:12;2.88;72.30
74946;HTU21D;63509;45.250;38.102;2024-03-08T08:52:42;2.96;72.31
74946;HTU21D;63509;45.250;38.102;2024-03-08T08:55:11;3.03;72.29
74946;HTU21D;63509;45.250;38.102;2024-03-08T08:57:41;3.01;72.25
74946;HTU21D;63509;45.250;38.102;2024-03-08T09:00:07;2.94;72.27
74946;HTU21D;63509;45.250;38.102;2024-03-08T09:02:37;2.85;72.32
74946;HTU21D;63509;45.250;38.102;2024-03-08T09:05:06;2.76;72.39
74946;HTU21D;63509;45.250;38.102;2024-03-08T09:07:33;2.72;72.40
74946;HTU21D;63509;45.250;38.102;2024-03-08T09:10:00;2.70;72.43
74946;HTU21D;63509;45.250;38.102;2024-03-08T09:12:26;2.75;72.51
74946;HTU21D;63509;45.250;38.102;2024-03-08T09:14:53;2.81;72.51
74946;HTU21D;63509;45.250;38.102;2024-03-08T09:17:20;2.83;72.45
74946;HTU21D;63509;45.250;38.102;2024-03-08T09:19:48;2.84;72.48
74946;HTU21D;63509;45.250;38.102;2024-03-08T09:22:14;2.87;72.51
74946;HTU21D;63509;45.250;38.102;2024-03-08T09:24:41;2.87;72.49
74946;HTU21D;63509;45.250;38.102;2024-03-08T09:27:14;2.95;72.57
74946;HTU21D;63509;45.250;38.102;2024-03-08T09:29:41;3.05;72.54
74946;HTU21D;63509;45.250;38.102;2024-03-08T09:32:10;3.09;72.51
74946;HTU21D;63509;45.250;38.102;2024-03-08T09:34:38;3.13;72.48
74946;HTU21D;63509;45.250;38.102;2024-03-08T09:37:04;3.18;72.49
74946;HTU21D;63509;45.250;38.102;2024-03-08T09:39:30;3.20;72.51
74946;HTU21D;63509;45.250;38.102;2024-03-08T09:41:57;3.21;72.56
74946;HTU21D;63509;45.250;38.102;2024-03-08T09:44:24;3.21;72.61
74946;HTU21D;63509;45.250;38.102;2024-03-08T09:46:51;3.24;72.59
74946;HTU21D;63509;45.250;38.102;2024-03-08T09:49:19;3.29;72.64
74946;HTU21D;63509;45.250;38.102;2024-03-08T09:51:46;3.34;72.66
74946;HTU21D;63509;45.250;38.102;2024-03-08T09:54:13;3.41;72.67
74946;HTU21D;63509;45.250;38.102;2024-03-08T09:56:43;3.47;72.64
74946;HTU21D;63509;45.250;38.102;2024-03-08T09:59:10;3.49;72.70
74946;HTU21D;63509;45.250;38.102;2024-03-08T10:02:01;3.48;72.73
74946;HTU21D;63509;45.250;38.102;2024-03-08T10:04:31;3.55;72.87
74946;HTU21D;63509;45.250;38.102;2024-03-08T10:07:00;3.60;72.88
74946;HTU21D;63509;45.250;38.102;2024-03-08T10:09:29;3.69;72.89
74946;HTU21D;63509;45.250;38.102;2024-03-08T10:11:57;3.85;72.85
74946;HTU21D;63509;45.250;38.102;2024-03-08T10:14:28;3.94;72.72
74946;HTU21D;63509;45.250;38.102;2024-03-08T10:17:00;3.98;72.66
74946;HTU21D;63509;45.250;38.102;2024-03-08T10:19:30;3.98;72.57
74946;HTU21D;63509;45.250;38.102;2024-03-08T10:21:59;3.99;72.61
74946;HTU21D;63509;45.250;38.102;2024-03-08T10:24:28;4.13;72.79
74946;HTU21D;63509;45.250;38.102;2024-03-08T10:27:02;4.33;72.92
74946;HTU21D;63509;45.250;38.102;2024-03-08T10:29:37;4.56;72.86
74946;HTU21D;63509;45.250;38.102;2024-03-08T10:32:16;4.78;72.89
74946;HTU21D;63509;45.250;38.102;2024-03-08T10:40:49;5.45;72.59
74946;HTU21D;63509;45.250;38.102;2024-03-08T10:47:32;5.36;71.98
74946;HTU21D;63509;45.250;38.102;2024-03-08T10:50:27;5.35;71.96
74946;HTU21D;63509;45.250;38.102;2024-03-08T10:52:58;5.30;71.87
74946;HTU21D;63509;45.250;38.102;2024-03-08T10:55:28;5.32;71.93
74946;HTU21D;63509;45.250;38.102;2024-03-08T10:57:54;5.35;71.77
74946;HTU21D;63509;45.250;38.102;2024-03-08T11:00:20;5.33;71.77
74946;HTU21D;63509;45.250;38.102;2024-03-08T11:02:53;5.41;71.82
74946;HTU21D;63509;45.250;38.102;2024-03-08T11:05:37;5.42;71.70
74946;HTU21D;63509;45.250;38.102;2024-03-08T11:08:22;5.41;71.58
74946;HTU21D;63509;45.250;38.102;2024-03-08T11:10:56;5.37;71.47
74946;HTU21D;63509;45.250;38.102;2024-03-08T11:13:40;5.27;71.41
74946;HTU21D;63509;45.250;38.102;2024-03-08T11:16:36;5.24;71.55
74946;HTU21D;63509;45.250;38.102;2024-03-08T11:21:45;5.38;71.67
74946;HTU21D;63509;45.250;38.102;2024-03-08T11:24:41;5.49;71.71
74946;HTU21D;63509;45.250;38.102;2024-03-08T11:27:12;5.61;71.64
74946;HTU21D;63509;45.250;38.102;2024-03-08T11:29:41;5.68;71.49
74946;HTU21D;63509;45.250;38.102;2024-03-08T11:34:42;5.69;71.19
74946;HTU21D;63509;45.250;38.102;2024-03-08T11:37:20;5.71;71.21
74946;HTU21D;63509;45.250;38.102;2024-03-08T11:42:29;5.59;71.00
74946;HTU21D;63509;45.250;38.102;2024-03-08T11:44:56;5.61;71.13
74946;HTU21D;63509;45.250;38.102;2024-03-08T11:47:24;5.61;71.05
74946;HTU21D;63509;45.250;38.102;2024-03-08T11:49:52;5.64;71.05
74946;HTU21D;63509;45.250;38.102;2024-03-08T11:52:19;5.65;71.01
74946;HTU21D;63509;45.250;38.102;2024-03-08T11:54:54;5.71;71.35
74946;HTU21D;63509;45.250;38.102;2024-03-08T11:57:23;5.93;71.27
74946;HTU21D;63509;45.250;38.102;2024-03-08T11:59:50;5.96;71.00
74946;HTU21D;63509;45.250;38.102;2024-03-08T12:02:17;5.95;70.90
74946;HTU21D;63509;45.250;38.102;2024-03-08T12:04:45;5.93;70.82
74946;HTU21D;63509;45.250;38.102;2024-03-08T12:07:15;5.90;70.74
74946;HTU21D;63509;45.250;38.102;2024-03-08T12:10:17;5.83;70.72
74946;HTU21D;63509;45.250;38.102;2024-03-08T12:12:51;5.79;70.64
74946;HTU21D;63509;45.250;38.102;2024-03-08T12:15:23;5.71;70.63
74946;HTU21D;63509;45.250;38.102;2024-03-08T12:17:53;5.69;70.68
74946;HTU21D;63509;45.250;38.102;2024-03-08T12:20:22;5.66;70.72
74946;HTU21D;63509;45.250;38.102;2024-03-08T12:22:50;5.64;70.64
74946;HTU21D;63509;45.250;38.102;2024-03-08T12:25:20;5.56;70.53
74946;HTU21D;63509;45.250;38.102;2024-03-08T12:27:46;5.53;70.51
74946;HTU21D;63509;45.250;38.102;2024-03-08T12:30:21;5.48;70.54
74946;HTU21D;63509;45.250;38.102;2024-03-08T12:32:48;5.43;70.51
74946;HTU21D;63509;45.250;38.102;2024-03-08T12:35:15;5.41;70.58
74946;HTU21D;63509;45.250;38.102;2024-03-08T12:37:42;5.42;70.62
74946;HTU21D;63509;45.250;38.102;2024-03-08T12:40:09;5.43;70.61
74946;HTU21D;63509;45.250;38.102;2024-03-08T12:42:36;5.49;70.62
74946;HTU21D;63509;45.250;38.102;2024-03-08T12:45:03;5.55;70.62
74946;HTU21D;63509;45.250;38.102;2024-03-08T12:47:31;5.62;70.59
74946;HTU21D;63509;45.250;38.102;2024-03-08T12:49:59;5.66;70.56
74946;HTU21D;63509;45.250;38.102;2024-03-08T12:52:25;5.71;70.55
74946;HTU21D;63509;45.250;38.102;2024-03-08T12:54:51;5.71;70.41
74946;HTU21D;63509;45.250;38.102;2024-03-08T12:57:17;5.72;70.42
74946;HTU21D;63509;45.250;38.102;2024-03-08T12:59:44;5.74;70.38
74946;HTU21D;63509;45.250;38.102;2024-03-08T13:02:10;5.74;70.32
74946;HTU21D;63509;45.250;38.102;2024-03-08T13:04:37;5.75;70.28
74946;HTU21D;63509;45.250;38.102;2024-03-08T13:07:03;5.76;70.20
74946;HTU21D;63509;45.250;38.102;2024-03-08T13:09:29;5.75;70.13
74946;HTU21D;63509;45.250;38.102;2024-03-08T13:11:57;5.75;70.10
74946;HTU21D;63509;45.250;38.102;2024-03-08T13:14:26;5.78;70.12
74946;HTU21D;63509;45.250;38.102;2024-03-08T13:16:52;5.80;70.12
74946;HTU21D;63509;45.250;38.102;2024-03-08T13:19:18;5.83;70.19
74946;HTU21D;63509;45.250;38.102;2024-03-08T13:21:47;5.90;70.18
74946;HTU21D;63509;45.250;38.102;2024-03-08T13:24:14;5.91;70.07
74946;HTU21D;63509;45.250;38.102;2024-03-08T13:26:42;5.91;70.11
74946;HTU21D;63509;45.250;38.102;2024-03-08T13:29:08;5.96;70.10
74946;HTU21D;63509;45.250;38.102;2024-03-08T13:31:35;5.95;69.98
74946;HTU21D;63509;45.250;38.102;2024-03-08T13:34:02;5.92;69.88
74946;HTU21D;63509;45.250;38.102;2024-03-08T13:36:30;5.89;69.85
74946;HTU21D;63509;45.250;38.102;2024-03-08T13:39:04;5.82;69.84
74946;HTU21D;63509;45.250;38.102;2024-03-08T13:41:41;5.78;69.85
74946;HTU21D;63509;45.250;38.102;2024-03-08T13:44:07;5.75;69.86
74946;HTU21D;63509;45.250;38.102;2024-03-08T13:46:33;5.68;69.79
74946;HTU21D;63509;45.250;38.102;2024-03-08T13:49:06;5.65;69.84
74946;HTU21D;63509;45.250;38.102;2024-03-08T13:51:34;5.65;69.85
74946;HTU21D;63509;45.250;38.102;2024-03-08T13:54:00;5.68;69.81
74946;HTU21D;63509;45.250;38.102;2024-03-08T13:56:27;5.71;69.81
74946;HTU21D;63509;45.250;38.102;2024-03-08T13:58:53;5.76;69.77
74946;HTU21D;63509;45.250;38.102;2024-03-08T14:01:22;5.78;69.72
74946;HTU21D;63509;45.250;38.102;2024-03-08T14:03:48;5.80;69.65
74946;HTU21D;63509;45.250;38.102;2024-03-08T14:06:14;5.83;69.58
74946;HTU21D;63509;45.250;38.102;2024-03-08T14:08:40;5.83;69.52
74946;HTU21D;63509;45.250;38.102;2024-03-08T14:11:06;5.81;69.53
74946;HTU21D;63509;45.250;38.102;2024-03-08T14:13:41;5.83;69.46
74946;HTU21D;63509;45.250;38.102;2024-03-08T14:16:10;5.81;69.36
74946;HTU21D;63509;45.250;38.102;2024-03-08T14:18:36;5.76;69.29
74946;HTU21D;63509;45.250;38.102;2024-03-08T14:21:04;5.70;69.29
74946;HTU21D;63509;45.250;38.102;2024-03-08T14:23:30;5.65;69.31
74946;HTU21D;63509;45.250;38.102;2024-03-08T14:25:58;5.62;69.32
74946;HTU21D;63509;45.250;38.102;2024-03-08T14:28:25;5.59;69.32
74946;HTU21D;63509;45.250;38.102;2024-03-08T14:30:53;5.56;69.33
74946;HTU21D;63509;45.250;38.102;2024-03-08T14:33:19;5.52;69.28
74946;HTU21D;63509;45.250;38.102;2024-03-08T14:35:45;5.49;69.26
74946;HTU21D;63509;45.250;38.102;2024-03-08T14:38:19;5.43;69.27
74946;HTU21D;63509;45.250;38.102;2024-03-08T14:40:46;5.38;69.26
74946;HTU21D;63509;45.250;38.102;2024-03-08T14:43:13;5.34;69.23
74946;HTU21D;63509;45.250;38.102;2024-03-08T14:45:42;5.28;69.23
74946;HTU21D;63509;45.250;38.102;2024-03-08T14:48:08;5.23;69.24
74946;HTU21D;63509;45.250;38.102;2024-03-08T14:50:37;5.17;69.28
74946;HTU21D;63509;45.250;38.102;2024-03-08T14:53:03;5.11;69.29
74946;HTU21D;63509;45.250;38.102;2024-03-08T14:55:32;5.08;69.35
74946;HTU21D;63509;45.250;38.102;2024-03-08T14:57:58;5.05;69.33
74946;HTU21D;63509;45.250;38.102;2024-03-08T15:00:24;5.01;69.34
74946;HTU21D;63509;45.250;38.102;2024-03-08T15:02:59;4.98;69.33
74946;HTU21D;63509;45.250;38.102;2024-03-08T15:05:25;4.93;69.31
74946;HTU21D;63509;45.250;38.102;2024-03-08T15:07:58;4.87;69.33
74946;HTU21D;63509;45.250;38.102;2024-03-08T15:10:28;4.79;69.31
74946;HTU21D;63509;45.250;38.102;2024-03-08T15:12:56;4.69;69.32
74946;HTU21D;63509;45.250;38.102;2024-03-08T15:15:24;4.62;69.38
74946;HTU21D;63509;45.250;38.102;2024-03-08T15:17:52;4.56;69.43
74946;HTU21D;63509;45.250;38.102;2024-03-08T15:20:20;4.51;69.42
74946;HTU21D;63509;45.250;38.102;2024-03-08T15:22:55;4.45;69.39
74946;HTU21D;63509;45.250;38.102;2024-03-08T15:25:21;4.37;69.39
74946;HTU21D;63509;45.250;38.102;2024-03-08T15:27:55;4.29;69.45
74946;HTU21D;63509;45.250;38.102;2024-03-08T15:30:21;4.26;69.46
74946;HTU21D;63509;45.250;38.102;2024-03-08T15:32:56;4.21;69.44
74946;HTU21D;63509;45.250;38.102;2024-03-08T15:35:25;4.14;69.40
74946;HTU21D;63509;45.250;38.102;2024-03-08T15:37:52;4.08;69.45
74946;HTU21D;63509;45.250;38.102;2024-03-08T15:40:18;4.03;69.49
74946;HTU21D;63509;45.250;38.102;2024-03-08T15:42:57;3.99;69.53